createdAt,value
2019-05-30T00:06:39.196Z,14.57
2019-05-30T00:16:42.983Z,14.33
2019-05-30T00:26:43.694Z,14.25
2019-05-30T00:36:44.520Z,14.03
2019-05-30T00:46:47.185Z,13.97
2019-05-30T00:56:49.835Z,13.73
2019-05-30T01:06:50.501Z,13.84
2019-05-30T01:16:51.301Z,13.81
2019-05-30T01:26:51.952Z,13.67
2019-05-30T01:36:54.668Z,13.59
2019-05-30T01:46:56.401Z,13.31
2019-05-30T01:56:57.069Z,13.40
2019-05-30T02:06:59.219Z,13.48
2019-05-30T02:17:01.582Z,13.20
2019-05-30T02:27:04.191Z,13.18
2019-05-30T02:37:07.768Z,13.33
2019-05-30T02:47:09.541Z,13.23
2019-05-30T02:57:12.603Z,13.20
2019-05-30T03:07:14.381Z,13.16
2019-05-30T03:17:17.103Z,12.99
2019-05-30T03:27:17.765Z,12.34
2019-05-30T03:37:28.804Z,12.56
2019-05-30T03:47:25.920Z,13.29
2019-05-30T03:57:30.483Z,13.64
2019-05-30T04:07:51.775Z,13.50
2019-05-30T04:17:53.467Z,13.35
2019-05-30T04:27:54.158Z,15.46
2019-05-30T04:37:54.899Z,16.62
2019-05-30T04:47:56.567Z,15.19
2019-05-30T04:57:58.302Z,14.72
2019-05-30T05:07:58.941Z,14.11
2019-05-30T05:18:00.603Z,15.56
2019-05-30T05:28:11.160Z,16.12
2019-05-30T05:38:24.711Z,17.76
2019-05-30T05:48:25.368Z,14.70
2019-05-30T05:58:29.248Z,16.89
2019-05-30T06:08:31.167Z,16.35
2019-05-30T06:18:31.849Z,16.81
2019-05-30T06:28:34.602Z,16.10
2019-05-30T06:38:36.315Z,17.22
2019-05-30T06:48:38.155Z,16.80
2019-05-30T06:58:48.362Z,16.19
2019-05-30T07:08:41.542Z,16.90
2019-05-30T07:18:48.242Z,16.91
2019-05-30T07:28:48.996Z,16.81
2019-05-30T07:38:49.661Z,16.94
2019-05-30T07:48:53.419Z,16.40
2019-05-30T07:58:56.137Z,16.67
2019-05-30T08:08:56.819Z,16.61
2019-05-30T08:18:57.470Z,16.98
2019-05-30T08:28:58.187Z,16.96
2019-05-30T08:39:00.925Z,17.81
2019-05-30T08:49:01.991Z,18.12
2019-05-30T08:59:03.194Z,17.51
2019-05-30T09:09:05.558Z,17.76
2019-05-30T09:19:07.402Z,17.62
2019-05-30T09:29:11.393Z,18.27
2019-05-30T09:39:13.294Z,17.97
2019-05-30T09:49:16.009Z,18.29
2019-05-30T09:59:16.784Z,17.80
2019-05-30T10:09:17.645Z,17.55
2019-05-30T10:19:19.310Z,17.80
2019-05-30T10:29:20.039Z,18.75
2019-05-30T10:39:20.701Z,19.65
2019-05-30T10:49:34.347Z,19.04
2019-05-30T10:59:24.050Z,18.56
2019-05-30T11:09:28.619Z,18.33
2019-05-30T11:19:29.290Z,18.58
2019-05-30T11:29:29.951Z,18.68
2019-05-30T11:39:30.726Z,18.29
2019-05-30T11:49:33.437Z,18.20
2019-05-30T11:59:35.148Z,17.74
2019-05-30T12:09:35.855Z,17.71
2019-05-30T12:19:37.485Z,19.52
2019-05-30T12:29:38.190Z,18.12
2019-05-30T12:39:38.872Z,19.10
2019-05-30T12:49:39.590Z,18.47
2019-05-30T12:59:40.352Z,17.98
2019-05-30T13:09:41.118Z,18.56
2019-05-30T13:19:48.634Z,18.55
2019-05-30T13:29:49.320Z,18.71
2019-05-30T13:39:50.013Z,18.49
2019-05-30T13:49:50.679Z,18.74
2019-05-30T13:59:52.098Z,19.12
2019-05-30T14:09:52.867Z,19.24
2019-05-30T14:19:53.551Z,19.28
2019-05-30T14:29:54.333Z,19.52
2019-05-30T14:39:55.088Z,19.97
2019-05-30T14:49:55.775Z,20.25
2019-05-30T14:59:56.536Z,19.86
2019-05-30T15:09:57.260Z,20.77
2019-05-30T15:19:58.048Z,21.60
2019-05-30T15:29:58.699Z,19.96
2019-05-30T15:39:59.388Z,20.53
2019-05-30T15:50:00.178Z,20.84
2019-05-30T16:00:01.721Z,19.44
2019-05-30T16:10:06.812Z,19.56
2019-05-30T16:20:08.219Z,19.43
2019-05-30T16:30:10.055Z,19.86
2019-05-30T16:40:11.233Z,19.45
2019-05-30T16:50:14.599Z,19.51
2019-05-30T17:00:15.831Z,20.35
2019-05-30T17:10:23.509Z,19.82
2019-05-30T17:20:20.706Z,19.27
2019-05-30T17:30:21.785Z,19.59
2019-05-30T17:40:39.368Z,19.42
2019-05-30T17:50:25.822Z,19.15
2019-05-30T18:00:26.865Z,18.91
2019-05-30T18:10:29.028Z,18.97
2019-05-30T18:20:29.713Z,19.38
2019-05-30T18:30:42.350Z,20.99
2019-05-30T18:40:45.047Z,21.56
2019-05-30T18:50:46.801Z,19.11
2019-05-30T19:00:47.476Z,18.40
2019-05-30T19:10:50.134Z,18.17
2019-05-30T19:20:50.828Z,17.81
2019-05-30T19:30:51.502Z,18.00
2019-05-30T19:40:52.205Z,19.17
2019-05-30T19:50:52.980Z,19.12
2019-05-30T20:00:58.456Z,19.41
2019-05-30T20:10:56.272Z,19.23
2019-05-30T20:20:58.066Z,19.07
2019-05-30T20:30:59.431Z,18.98
2019-05-30T20:41:00.094Z,19.33
2019-05-30T21:01:21.886Z,19.24
2019-05-30T21:11:22.546Z,18.91
2019-05-30T21:21:23.228Z,18.89
2019-05-30T21:31:23.918Z,18.35
